sensor_id;sensor_type;location;lat;lon;timestamp;pressure;altitude;pressure_sealevel;temperature;humidity
66385;BME280;53426;55.872;37.462;2022-08-21T00:01:58;100101.00;;;17.62;41.27
66385;BME280;53426;55.872;37.462;2022-08-21T00:04:24;100096.75;;;17.59;41.24
66385;BME280;53426;55.872;37.462;2022-08-21T00:06:51;100111.72;;;17.70;41.04
66385;BME280;53426;55.872;37.462;2022-08-21T00:09:18;100117.72;;;17.64;41.85
66385;BME280;53426;55.872;37.462;2022-08-21T00:11:45;100132.16;;;17.71;41.74
66385;BME280;53426;55.872;37.462;2022-08-21T00:14:13;100075.59;;;17.40;41.99
66385;BME280;53426;55.872;37.462;2022-08-21T00:16:39;100065.97;;;17.29;41.96
66385;BME280;53426;55.872;37.462;2022-08-21T00:19:06;100106.31;;;17.36;42.10
66385;BME280;53426;55.872;37.462;2022-08-21T00:21:33;100057.59;;;16.98;41.84
66385;BME280;53426;55.872;37.462;2022-08-21T00:24:00;100112.56;;;17.19;42.23
66385;BME280;53426;55.872;37.462;2022-08-21T00:26:25;100133.41;;;17.33;42.45
66385;BME280;53426;55.872;37.462;2022-08-21T00:28:52;100000.91;;;16.51;42.41
66385;BME280;53426;55.872;37.462;2022-08-21T00:31:18;100118.00;;;17.27;42.61
66385;BME280;53426;55.872;37.462;2022-08-21T00:34:00;100087.75;;;17.08;42.50
66385;BME280;53426;55.872;37.462;2022-08-21T00:36:26;100085.34;;;16.97;42.53
66385;BME280;53426;55.872;37.462;2022-08-21T00:38:52;100113.03;;;17.14;42.69
66385;BME280;53426;55.872;37.462;2022-08-21T00:41:19;100124.59;;;17.14;42.80
66385;BME280;53426;55.872;37.462;2022-08-21T00:43:49;100113.53;;;17.09;43.07
66385;BME280;53426;55.872;37.462;2022-08-21T00:46:16;100080.16;;;16.96;42.92
66385;BME280;53426;55.872;37.462;2022-08-21T00:48:42;100113.16;;;17.04;43.08
66385;BME280;53426;55.872;37.462;2022-08-21T00:51:21;100134.41;;;17.06;42.67
66385;BME280;53426;55.872;37.462;2022-08-21T00:53:54;100039.81;;;16.63;43.11
66385;BME280;53426;55.872;37.462;2022-08-21T00:56:23;100081.03;;;16.79;43.38
66385;BME280;53426;55.872;37.462;2022-08-21T00:58:49;100103.06;;;16.98;43.35
66385;BME280;53426;55.872;37.462;2022-08-21T01:01:17;100085.69;;;16.77;43.44
66385;BME280;53426;55.872;37.462;2022-08-21T01:03:43;100113.78;;;16.98;43.31
66385;BME280;53426;55.872;37.462;2022-08-21T01:06:09;100090.19;;;16.76;43.24
66385;BME280;53426;55.872;37.462;2022-08-21T01:08:35;100079.13;;;16.71;43.37
66385;BME280;53426;55.872;37.462;2022-08-21T01:11:02;100097.38;;;16.76;43.70
66385;BME280;53426;55.872;37.462;2022-08-21T01:13:30;100093.81;;;16.67;43.32
66385;BME280;53426;55.872;37.462;2022-08-21T01:15:58;100104.25;;;16.78;43.59
66385;BME280;53426;55.872;37.462;2022-08-21T01:18:26;100086.75;;;16.66;43.59
66385;BME280;53426;55.872;37.462;2022-08-21T01:21:14;100118.38;;;16.70;43.93
66385;BME280;53426;55.872;37.462;2022-08-21T01:23:49;100094.31;;;16.53;43.79
66385;BME280;53426;55.872;37.462;2022-08-21T01:26:19;100096.63;;;16.65;43.90
66385;BME280;53426;55.872;37.462;2022-08-21T01:28:59;100121.63;;;16.74;43.64
66385;BME280;53426;55.872;37.462;2022-08-21T01:31:28;100089.88;;;16.44;44.02
66385;BME280;53426;55.872;37.462;2022-08-21T01:33:55;100111.72;;;16.57;44.00
66385;BME280;53426;55.872;37.462;2022-08-21T01:36:46;100115.16;;;16.49;44.09
66385;BME280;53426;55.872;37.462;2022-08-21T01:39:13;100070.72;;;16.30;44.12
66385;BME280;53426;55.872;37.462;2022-08-21T01:41:40;100099.97;;;16.50;44.50
66385;BME280;53426;55.872;37.462;2022-08-21T01:44:06;100080.94;;;16.35;44.22
66385;BME280;53426;55.872;37.462;2022-08-21T01:46:32;100112.00;;;16.63;43.92
66385;BME280;53426;55.872;37.462;2022-08-21T01:48:58;100105.69;;;16.55;44.38
66385;BME280;53426;55.872;37.462;2022-08-21T01:51:24;100102.03;;;16.56;43.83
66385;BME280;53426;55.872;37.462;2022-08-21T01:53:50;100104.59;;;16.48;44.31
66385;BME280;53426;55.872;37.462;2022-08-21T01:56:17;100106.59;;;16.46;44.39
66385;BME280;53426;55.872;37.462;2022-08-21T01:58:45;100104.00;;;16.36;44.17
66385;BME280;53426;55.872;37.462;2022-08-21T02:01:12;100114.84;;;16.35;44.54
66385;BME280;53426;55.872;37.462;2022-08-21T02:03:38;100102.16;;;16.37;44.67
66385;BME280;53426;55.872;37.462;2022-08-21T02:06:05;100100.25;;;16.29;44.64
66385;BME280;53426;55.872;37.462;2022-08-21T02:08:32;100115.69;;;16.35;44.41
66385;BME280;53426;55.872;37.462;2022-08-21T02:10:58;100118.81;;;16.30;44.52
66385;BME280;53426;55.872;37.462;2022-08-21T02:13:24;100109.88;;;16.22;44.80
66385;BME280;53426;55.872;37.462;2022-08-21T02:15:50;100119.56;;;16.23;44.83
66385;BME280;53426;55.872;37.462;2022-08-21T02:18:16;100112.91;;;16.27;44.70
66385;BME280;53426;55.872;37.462;2022-08-21T02:20:45;100119.44;;;16.24;44.51
66385;BME280;53426;55.872;37.462;2022-08-21T02:23:12;100122.16;;;16.32;44.84
66385;BME280;53426;55.872;37.462;2022-08-21T02:25:38;100125.75;;;16.23;44.87
66385;BME280;53426;55.872;37.462;2022-08-21T02:28:11;100129.94;;;16.26;44.86
66385;BME280;53426;55.872;37.462;2022-08-21T02:30:40;100140.59;;;16.36;44.72
66385;BME280;53426;55.872;37.462;2022-08-21T02:33:08;100120.94;;;16.27;44.89
66385;BME280;53426;55.872;37.462;2022-08-21T02:35:35;100117.75;;;16.23;44.74
66385;BME280;53426;55.872;37.462;2022-08-21T02:38:05;100115.84;;;16.33;44.60
66385;BME280;53426;55.872;37.462;2022-08-21T02:40:34;100105.09;;;16.25;44.49
66385;BME280;53426;55.872;37.462;2022-08-21T02:43:01;100112.09;;;16.26;44.44
66385;BME280;53426;55.872;37.462;2022-08-21T02:45:28;100123.84;;;16.33;44.63
66385;BME280;53426;55.872;37.462;2022-08-21T02:47:59;100113.47;;;16.30;44.29
66385;BME280;53426;55.872;37.462;2022-08-21T02:50:37;100126.66;;;16.32;44.68
66385;BME280;53426;55.872;37.462;2022-08-21T02:53:05;100124.38;;;16.37;44.19
66385;BME280;53426;55.872;37.462;2022-08-21T02:55:32;100133.63;;;16.43;44.39
66385;BME280;53426;55.872;37.462;2022-08-21T02:57:59;100119.50;;;16.50;44.11
66385;BME280;53426;55.872;37.462;2022-08-21T03:00:28;100114.88;;;16.52;44.30
66385;BME280;53426;55.872;37.462;2022-08-21T03:02:55;100125.88;;;16.67;43.83
66385;BME280;53426;55.872;37.462;2022-08-21T03:05:23;100123.69;;;16.62;43.76
66385;BME280;53426;55.872;37.462;2022-08-21T03:07:49;100124.19;;;16.66;43.71
66385;BME280;53426;55.872;37.462;2022-08-21T03:10:15;100129.56;;;16.66;43.75
66385;BME280;53426;55.872;37.462;2022-08-21T03:12:42;100112.50;;;16.67;43.67
66385;BME280;53426;55.872;37.462;2022-08-21T03:15:13;100125.94;;;16.75;43.71
66385;BME280;53426;55.872;37.462;2022-08-21T03:17:39;100129.94;;;16.71;43.71
66385;BME280;53426;55.872;37.462;2022-08-21T03:20:06;100132.00;;;16.77;43.57
66385;BME280;53426;55.872;37.462;2022-08-21T03:22:32;100134.94;;;16.92;43.70
66385;BME280;53426;55.872;37.462;2022-08-21T03:24:58;100141.50;;;16.97;43.18
66385;BME280;53426;55.872;37.462;2022-08-21T03:27:25;100138.59;;;17.08;43.22
66385;BME280;53426;55.872;37.462;2022-08-21T03:29:53;100140.53;;;16.98;42.88
66385;BME280;53426;55.872;37.462;2022-08-21T03:32:19;100140.38;;;17.00;43.16
66385;BME280;53426;55.872;37.462;2022-08-21T03:34:45;100144.13;;;17.07;43.11
66385;BME280;53426;55.872;37.462;2022-08-21T03:37:13;100144.03;;;17.17;42.31
66385;BME280;53426;55.872;37.462;2022-08-21T03:39:40;100133.59;;;17.13;42.66
66385;BME280;53426;55.872;37.462;2022-08-21T03:42:07;100146.97;;;17.31;42.53
66385;BME280;53426;55.872;37.462;2022-08-21T03:44:33;100129.75;;;17.34;42.29
66385;BME280;53426;55.872;37.462;2022-08-21T03:47:00;100125.53;;;17.31;42.28
66385;BME280;53426;55.872;37.462;2022-08-21T03:49:26;100145.47;;;17.37;41.89
66385;BME280;53426;55.872;37.462;2022-08-21T03:51:53;100126.47;;;17.48;41.92
66385;BME280;53426;55.872;37.462;2022-08-21T03:54:19;100138.63;;;17.94;41.22
66385;BME280;53426;55.872;37.462;2022-08-21T03:56:45;100136.09;;;18.51;39.94
66385;BME280;53426;55.872;37.462;2022-08-21T03:59:11;100138.38;;;18.96;39.14
66385;BME280;53426;55.872;37.462;2022-08-21T04:01:37;100124.06;;;19.28;38.39
66385;BME280;53426;55.872;37.462;2022-08-21T04:04:04;100139.31;;;19.59;38.06
66385;BME280;53426;55.872;37.462;2022-08-21T04:06:30;100132.13;;;19.52;37.75
66385;BME280;53426;55.872;37.462;2022-08-21T04:08:55;100119.84;;;19.57;37.72
66385;BME280;53426;55.872;37.462;2022-08-21T04:11:21;100115.59;;;19.79;37.63
66385;BME280;53426;55.872;37.462;2022-08-21T04:13:47;100137.72;;;19.89;36.89
66385;BME280;53426;55.872;37.462;2022-08-21T04:16:13;100130.72;;;20.11;36.17
66385;BME280;53426;55.872;37.462;2022-08-21T04:18:39;100133.81;;;19.92;36.64
66385;BME280;53426;55.872;37.462;2022-08-21T04:21:07;100123.66;;;20.10;36.83
66385;BME280;53426;55.872;37.462;2022-08-21T04:23:35;100129.28;;;20.31;35.91
66385;BME280;53426;55.872;37.462;2022-08-21T04:26:02;100123.78;;;20.56;35.70
66385;BME280;53426;55.872;37.462;2022-08-21T04:28:28;100128.00;;;20.50;35.75
66385;BME280;53426;55.872;37.462;2022-08-21T04:30:55;100130.72;;;20.73;35.18
66385;BME280;53426;55.872;37.462;2022-08-21T04:33:22;100123.09;;;20.54;35.53
66385;BME280;53426;55.872;37.462;2022-08-21T04:35:48;100121.59;;;20.74;35.44
66385;BME280;53426;55.872;37.462;2022-08-21T04:38:15;100124.66;;;20.71;34.92
66385;BME280;53426;55.872;37.462;2022-08-21T04:40:41;100135.66;;;20.84;34.83
66385;BME280;53426;55.872;37.462;2022-08-21T04:43:09;100128.19;;;20.94;34.73
66385;BME280;53426;55.872;37.462;2022-08-21T04:45:41;100126.56;;;20.85;34.81
66385;BME280;53426;55.872;37.462;2022-08-21T04:48:09;100136.84;;;21.27;34.01
66385;BME280;53426;55.872;37.462;2022-08-21T04:50:41;100121.03;;;21.39;34.00
66385;BME280;53426;55.872;37.462;2022-08-21T04:53:12;100131.78;;;21.76;33.18
66385;BME280;53426;55.872;37.462;2022-08-21T04:55:39;100135.63;;;22.32;32.20
66385;BME280;53426;55.872;37.462;2022-08-21T04:58:11;100144.31;;;22.85;31.21
66385;BME280;53426;55.872;37.462;2022-08-21T05:00:39;100139.75;;;23.34;30.67
66385;BME280;53426;55.872;37.462;2022-08-21T05:03:08;100138.84;;;23.83;29.95
66385;BME280;53426;55.872;37.462;2022-08-21T05:05:35;100137.00;;;23.84;29.79
66385;BME280;53426;55.872;37.462;2022-08-21T05:08:02;100129.34;;;23.94;29.54
66385;BME280;53426;55.872;37.462;2022-08-21T05:10:29;100134.59;;;24.08;29.40
66385;BME280;53426;55.872;37.462;2022-08-21T05:12:57;100129.34;;;24.00;28.80
66385;BME280;53426;55.872;37.462;2022-08-21T05:15:23;100119.41;;;24.07;28.72
66385;BME280;53426;55.872;37.462;2022-08-21T05:17:49;100120.06;;;24.16;28.64
66385;BME280;53426;55.872;37.462;2022-08-21T05:20:15;100133.53;;;24.03;28.77
66385;BME280;53426;55.872;37.462;2022-08-21T05:22:41;100134.28;;;24.25;28.50
66385;BME280;53426;55.872;37.462;2022-08-21T05:25:08;100126.22;;;24.51;28.26
66385;BME280;53426;55.872;37.462;2022-08-21T05:27:35;100115.00;;;24.47;28.27
66385;BME280;53426;55.872;37.462;2022-08-21T05:30:01;100120.84;;;24.77;27.92
66385;BME280;53426;55.872;37.462;2022-08-21T05:32:27;100115.22;;;24.52;27.75
66385;BME280;53426;55.872;37.462;2022-08-21T05:34:53;100122.34;;;24.93;26.89
66385;BME280;53426;55.872;37.462;2022-08-21T05:37:20;100133.50;;;24.50;27.72
66385;BME280;53426;55.872;37.462;2022-08-21T05:39:46;100106.28;;;24.85;27.27
66385;BME280;53426;55.872;37.462;2022-08-21T05:42:16;100127.16;;;25.37;26.64
66385;BME280;53426;55.872;37.462;2022-08-21T05:44:42;100093.81;;;25.10;26.47
66385;BME280;53426;55.872;37.462;2022-08-21T05:47:11;100134.03;;;25.66;25.77
66385;BME280;53426;55.872;37.462;2022-08-21T05:49:37;100129.88;;;25.30;26.17
66385;BME280;53426;55.872;37.462;2022-08-21T05:52:04;100103.63;;;26.08;25.54
66385;BME280;53426;55.872;37.462;2022-08-21T05:54:36;100118.81;;;26.67;24.85
66385;BME280;53426;55.872;37.462;2022-08-21T05:57:40;100119.91;;;26.84;24.35
66385;BME280;53426;55.872;37.462;2022-08-21T06:00:09;100123.94;;;27.56;23.42
66385;BME280;53426;55.872;37.462;2022-08-21T06:02:53;100059.84;;;27.42;23.28
66385;BME280;53426;55.872;37.462;2022-08-21T06:05:22;100125.78;;;28.17;22.71
66385;BME280;53426;55.872;37.462;2022-08-21T06:07:48;100114.22;;;27.85;23.17
66385;BME280;53426;55.872;37.462;2022-08-21T06:10:14;100119.28;;;28.00;22.54
66385;BME280;53426;55.872;37.462;2022-08-21T06:12:40;100113.00;;;28.17;22.61
66385;BME280;53426;55.872;37.462;2022-08-21T06:15:06;100106.28;;;28.20;22.55
66385;BME280;53426;55.872;37.462;2022-08-21T06:17:33;100113.75;;;28.73;21.65
66385;BME280;53426;55.872;37.462;2022-08-21T06:19:59;100103.56;;;28.20;21.66
66385;BME280;53426;55.872;37.462;2022-08-21T06:22:25;100101.00;;;28.25;21.26
66385;BME280;53426;55.872;37.462;2022-08-21T06:24:51;100101.44;;;28.22;21.33
66385;BME280;53426;55.872;37.462;2022-08-21T06:27:18;100059.28;;;27.76;21.34
66385;BME280;53426;55.872;37.462;2022-08-21T06:29:46;100098.47;;;28.83;20.77
66385;BME280;53426;55.872;37.462;2022-08-21T06:32:13;100099.66;;;28.87;21.08
66385;BME280;53426;55.872;37.462;2022-08-21T06:34:41;100011.94;;;27.77;21.39
66385;BME280;53426;55.872;37.462;2022-08-21T06:37:32;100094.50;;;28.38;21.07
66385;BME280;53426;55.872;37.462;2022-08-21T06:40:02;100076.25;;;28.08;21.42
66385;BME280;53426;55.872;37.462;2022-08-21T06:42:30;100096.81;;;28.52;20.99
66385;BME280;53426;55.872;37.462;2022-08-21T06:44:59;100107.88;;;28.57;21.01
66385;BME280;53426;55.872;37.462;2022-08-21T06:47:25;100089.88;;;28.68;20.81
66385;BME280;53426;55.872;37.462;2022-08-21T06:49:53;100100.19;;;29.07;20.79
66385;BME280;53426;55.872;37.462;2022-08-21T06:55:42;100035.81;;;29.06;20.42
66385;BME280;53426;55.872;37.462;2022-08-21T07:01:23;100047.06;;;29.10;19.59
66385;BME280;53426;55.872;37.462;2022-08-21T07:03:56;100062.13;;;29.47;20.22
66385;BME280;53426;55.872;37.462;2022-08-21T07:06:34;100004.25;;;28.99;20.05
66385;BME280;53426;55.872;37.462;2022-08-21T07:09:04;100054.63;;;29.66;20.42
66385;BME280;53426;55.872;37.462;2022-08-21T07:11:37;100061.38;;;30.44;20.21
66385;BME280;53426;55.872;37.462;2022-08-21T07:14:03;100097.09;;;30.25;19.74
66385;BME280;53426;55.872;37.462;2022-08-21T07:16:29;100062.97;;;30.28;19.31
66385;BME280;53426;55.872;37.462;2022-08-21T07:18:55;100085.56;;;30.80;19.47
66385;BME280;53426;55.872;37.462;2022-08-21T07:21:21;100084.38;;;31.43;18.17
66385;BME280;53426;55.872;37.462;2022-08-21T07:23:49;100099.72;;;31.61;18.25
66385;BME280;53426;55.872;37.462;2022-08-21T07:26:17;100079.47;;;31.62;18.00
66385;BME280;53426;55.872;37.462;2022-08-21T07:28:45;100055.16;;;31.48;19.18
66385;BME280;53426;55.872;37.462;2022-08-21T07:31:14;100066.03;;;31.60;17.63
66385;BME280;53426;55.872;37.462;2022-08-21T07:33:40;100065.69;;;32.17;19.78
66385;BME280;53426;55.872;37.462;2022-08-21T07:36:07;100070.09;;;32.18;17.02
66385;BME280;53426;55.872;37.462;2022-08-21T07:38:33;100080.81;;;32.24;17.24
66385;BME280;53426;55.872;37.462;2022-08-21T07:41:00;99986.97;;;31.85;16.89
66385;BME280;53426;55.872;37.462;2022-08-21T07:43:28;100085.66;;;32.39;19.61
66385;BME280;53426;55.872;37.462;2022-08-21T07:45:54;100033.00;;;31.67;16.28
66385;BME280;53426;55.872;37.462;2022-08-21T07:48:21;100078.91;;;32.03;16.63
66385;BME280;53426;55.872;37.462;2022-08-21T07:50:48;100073.44;;;32.25;15.81
66385;BME280;53426;55.872;37.462;2022-08-21T07:53:14;100079.31;;;31.90;15.73
66385;BME280;53426;55.872;37.462;2022-08-21T07:55:40;100011.22;;;31.16;16.38
66385;BME280;53426;55.872;37.462;2022-08-21T07:58:06;100072.16;;;31.67;16.30
66385;BME280;53426;55.872;37.462;2022-08-21T08:00:32;100060.09;;;31.46;16.32
66385;BME280;53426;55.872;37.462;2022-08-21T08:02:58;100080.31;;;31.84;16.38
66385;BME280;53426;55.872;37.462;2022-08-21T08:05:27;100046.31;;;31.58;15.93
66385;BME280;53426;55.872;37.462;2022-08-21T08:07:54;100017.34;;;31.84;15.88
66385;BME280;53426;55.872;37.462;2022-08-21T08:10:24;100030.13;;;32.00;15.57
66385;BME280;53426;55.872;37.462;2022-08-21T08:12:51;100049.97;;;32.34;14.88
66385;BME280;53426;55.872;37.462;2022-08-21T08:15:20;100064.38;;;33.10;14.30
66385;BME280;53426;55.872;37.462;2022-08-21T08:17:47;100050.25;;;33.28;14.22
66385;BME280;53426;55.872;37.462;2022-08-21T08:20:17;99998.00;;;32.76;14.97
66385;BME280;53426;55.872;37.462;2022-08-21T08:22:44;100016.09;;;32.72;15.97
66385;BME280;53426;55.872;37.462;2022-08-21T08:25:12;100046.66;;;32.91;14.97
66385;BME280;53426;55.872;37.462;2022-08-21T08:27:38;100023.47;;;32.71;14.78
66385;BME280;53426;55.872;37.462;2022-08-21T08:30:06;99985.16;;;32.18;14.38
66385;BME280;53426;55.872;37.462;2022-08-21T08:32:32;99996.56;;;32.68;14.30
66385;BME280;53426;55.872;37.462;2022-08-21T08:34:58;100033.19;;;33.21;13.71
66385;BME280;53426;55.872;37.462;2022-08-21T08:37:25;100023.63;;;32.92;13.84
66385;BME280;53426;55.872;37.462;2022-08-21T08:39:54;100015.44;;;32.97;13.32
66385;BME280;53426;55.872;37.462;2022-08-21T08:42:35;99987.00;;;33.13;13.62
66385;BME280;53426;55.872;37.462;2022-08-21T08:45:04;100026.00;;;32.24;14.38
66385;BME280;53426;55.872;37.462;2022-08-21T08:47:35;99999.44;;;30.99;14.63
66385;BME280;53426;55.872;37.462;2022-08-21T08:50:07;100045.03;;;31.27;15.14
66385;BME280;53426;55.872;37.462;2022-08-21T08:52:36;100057.97;;;31.70;15.04
66385;BME280;53426;55.872;37.462;2022-08-21T08:55:08;100012.41;;;32.08;14.97
66385;BME280;53426;55.872;37.462;2022-08-21T08:57:41;100009.66;;;32.08;15.24
66385;BME280;53426;55.872;37.462;2022-08-21T09:00:11;100037.06;;;32.88;14.06
66385;BME280;53426;55.872;37.462;2022-08-21T09:02:43;100007.78;;;32.99;14.63
66385;BME280;53426;55.872;37.462;2022-08-21T09:05:25;100023.47;;;33.55;14.11
66385;BME280;53426;55.872;37.462;2022-08-21T09:11:02;100027.50;;;33.85;14.22
66385;BME280;53426;55.872;37.462;2022-08-21T09:18:55;99956.59;;;32.14;14.44
66385;BME280;53426;55.872;37.462;2022-08-21T09:26:50;100010.59;;;30.31;16.53
66385;BME280;53426;55.872;37.462;2022-08-21T09:29:22;100011.31;;;30.10;16.26
66385;BME280;53426;55.872;37.462;2022-08-21T09:31:49;100019.44;;;29.81;16.80
66385;BME280;53426;55.872;37.462;2022-08-21T09:34:28;100003.06;;;30.21;16.75
66385;BME280;53426;55.872;37.462;2022-08-21T09:36:55;100002.13;;;29.76;16.77
66385;BME280;53426;55.872;37.462;2022-08-21T09:39:38;99958.59;;;29.29;17.23
66385;BME280;53426;55.872;37.462;2022-08-21T09:42:07;100027.25;;;29.49;17.44
66385;BME280;53426;55.872;37.462;2022-08-21T09:44:39;99966.09;;;28.87;16.87
66385;BME280;53426;55.872;37.462;2022-08-21T09:47:06;100014.56;;;29.08;16.60
66385;BME280;53426;55.872;37.462;2022-08-21T09:49:35;99980.91;;;28.91;16.49
66385;BME280;53426;55.872;37.462;2022-08-21T09:52:04;100028.78;;;29.22;16.43
66385;BME280;53426;55.872;37.462;2022-08-21T09:54:35;100006.50;;;29.13;16.53
66385;BME280;53426;55.872;37.462;2022-08-21T09:59:54;100032.25;;;29.29;16.83
66385;BME280;53426;55.872;37.462;2022-08-21T10:04:54;100002.47;;;28.93;16.80
66385;BME280;53426;55.872;37.462;2022-08-21T10:07:22;99989.72;;;28.40;17.52
66385;BME280;53426;55.872;37.462;2022-08-21T10:10:16;100023.56;;;28.74;17.51
66385;BME280;53426;55.872;37.462;2022-08-21T10:16:12;99976.22;;;28.45;17.04
66385;BME280;53426;55.872;37.462;2022-08-21T10:24:08;99925.53;;;28.56;16.95
66385;BME280;53426;55.872;37.462;2022-08-21T10:29:47;99993.94;;;29.36;16.13
66385;BME280;53426;55.872;37.462;2022-08-21T10:32:25;99990.75;;;29.04;17.08
66385;BME280;53426;55.872;37.462;2022-08-21T10:35:18;99988.00;;;28.92;16.38
66385;BME280;53426;55.872;37.462;2022-08-21T10:49:17;99963.31;;;28.11;17.31
66385;BME280;53426;55.872;37.462;2022-08-21T10:55:02;99998.91;;;27.98;17.90
66385;BME280;53426;55.872;37.462;2022-08-21T11:01:35;99963.81;;;27.23;17.54
66385;BME280;53426;55.872;37.462;2022-08-21T11:06:37;99976.66;;;26.98;17.86
66385;BME280;53426;55.872;37.462;2022-08-21T11:09:12;99981.56;;;27.08;18.04
66385;BME280;53426;55.872;37.462;2022-08-21T11:11:46;99967.84;;;27.21;18.07
66385;BME280;53426;55.872;37.462;2022-08-21T11:16:45;99963.59;;;27.25;18.38
66385;BME280;53426;55.872;37.462;2022-08-21T11:22:02;99947.50;;;27.41;17.96
66385;BME280;53426;55.872;37.462;2022-08-21T11:29:52;99955.78;;;26.92;17.85
66385;BME280;53426;55.872;37.462;2022-08-21T11:35:34;99971.72;;;26.88;17.96
66385;BME280;53426;55.872;37.462;2022-08-21T11:41:16;99971.59;;;26.77;18.48
66385;BME280;53426;55.872;37.462;2022-08-21T11:43:56;99985.44;;;26.69;17.80
66385;BME280;53426;55.872;37.462;2022-08-21T11:46:44;99974.72;;;26.55;17.78
66385;BME280;53426;55.872;37.462;2022-08-21T11:57:23;99973.47;;;26.27;18.52
66385;BME280;53426;55.872;37.462;2022-08-21T12:03:10;99957.66;;;26.17;18.89
66385;BME280;53426;55.872;37.462;2022-08-21T12:05:43;99892.25;;;25.62;19.47
66385;BME280;53426;55.872;37.462;2022-08-21T12:08:37;99958.50;;;26.11;19.65
66385;BME280;53426;55.872;37.462;2022-08-21T12:13:35;99943.63;;;25.89;20.16
66385;BME280;53426;55.872;37.462;2022-08-21T12:16:27;99942.09;;;25.99;19.78
66385;BME280;53426;55.872;37.462;2022-08-21T12:19:28;99975.84;;;26.10;20.08
66385;BME280;53426;55.872;37.462;2022-08-21T12:22:49;99946.78;;;25.86;20.15
66385;BME280;53426;55.872;37.462;2022-08-21T12:25:19;99948.06;;;25.76;21.57
66385;BME280;53426;55.872;37.462;2022-08-21T12:27:50;99954.13;;;25.78;20.50
66385;BME280;53426;55.872;37.462;2022-08-21T12:30:34;99956.00;;;25.78;20.64
66385;BME280;53426;55.872;37.462;2022-08-21T12:33:03;99941.44;;;25.72;20.52
66385;BME280;53426;55.872;37.462;2022-08-21T12:35:41;99954.72;;;25.80;20.06
66385;BME280;53426;55.872;37.462;2022-08-21T12:38:32;99936.16;;;25.84;20.45
66385;BME280;53426;55.872;37.462;2022-08-21T12:41:03;99924.94;;;25.74;20.14
66385;BME280;53426;55.872;37.462;2022-08-21T12:43:41;99952.44;;;25.84;20.15
66385;BME280;53426;55.872;37.462;2022-08-21T12:46:18;99936.84;;;25.73;20.43
66385;BME280;53426;55.872;37.462;2022-08-21T12:48:52;99950.63;;;25.65;21.45
66385;BME280;53426;55.872;37.462;2022-08-21T12:51:26;99960.41;;;25.72;20.67
66385;BME280;53426;55.872;37.462;2022-08-21T12:53:57;99932.94;;;25.62;22.85
66385;BME280;53426;55.872;37.462;2022-08-21T12:56:32;99938.75;;;25.66;20.84
66385;BME280;53426;55.872;37.462;2022-08-21T12:59:06;99942.75;;;25.63;21.24
66385;BME280;53426;55.872;37.462;2022-08-21T13:01:48;99917.53;;;25.50;20.88
66385;BME280;53426;55.872;37.462;2022-08-21T13:04:19;99924.16;;;25.54;22.02
66385;BME280;53426;55.872;37.462;2022-08-21T13:06:50;99943.59;;;25.57;21.29
66385;BME280;53426;55.872;37.462;2022-08-21T13:09:20;99926.50;;;25.57;20.88
66385;BME280;53426;55.872;37.462;2022-08-21T13:11:50;99938.56;;;25.61;21.06
66385;BME280;53426;55.872;37.462;2022-08-21T13:14:28;99949.84;;;25.58;20.83
66385;BME280;53426;55.872;37.462;2022-08-21T13:16:58;99925.56;;;25.69;21.32
66385;BME280;53426;55.872;37.462;2022-08-21T13:19:26;99922.06;;;25.69;21.33
66385;BME280;53426;55.872;37.462;2022-08-21T13:21:53;99909.75;;;25.66;21.30
66385;BME280;53426;55.872;37.462;2022-08-21T13:24:23;99910.41;;;25.62;21.53
66385;BME280;53426;55.872;37.462;2022-08-21T13:26:50;99935.03;;;25.60;21.51
66385;BME280;53426;55.872;37.462;2022-08-21T13:29:21;99931.69;;;25.52;21.26
66385;BME280;53426;55.872;37.462;2022-08-21T13:31:55;99946.06;;;25.59;21.74
66385;BME280;53426;55.872;37.462;2022-08-21T13:34:25;99926.94;;;25.47;21.58
66385;BME280;53426;55.872;37.462;2022-08-21T13:36:57;99922.72;;;25.51;21.62
66385;BME280;53426;55.872;37.462;2022-08-21T13:39:24;99919.41;;;25.49;22.61
66385;BME280;53426;55.872;37.462;2022-08-21T13:41:55;99910.59;;;25.54;21.83
66385;BME280;53426;55.872;37.462;2022-08-21T13:44:36;99930.59;;;25.66;21.41
66385;BME280;53426;55.872;37.462;2022-08-21T13:47:04;99933.53;;;25.64;21.50
66385;BME280;53426;55.872;37.462;2022-08-21T13:49:43;99928.94;;;25.65;21.78
66385;BME280;53426;55.872;37.462;2022-08-21T13:52:21;99925.13;;;25.79;21.67
66385;BME280;53426;55.872;37.462;2022-08-21T13:54:59;99928.69;;;25.73;21.75
66385;BME280;53426;55.872;37.462;2022-08-21T14:01:52;99919.19;;;25.57;22.10
66385;BME280;53426;55.872;37.462;2022-08-21T14:04:33;99910.22;;;25.57;21.45
66385;BME280;53426;55.872;37.462;2022-08-21T14:07:03;99897.72;;;25.49;21.56
66385;BME280;53426;55.872;37.462;2022-08-21T14:09:44;99925.19;;;25.66;21.30
66385;BME280;53426;55.872;37.462;2022-08-21T14:12:23;99903.88;;;25.69;21.72
66385;BME280;53426;55.872;37.462;2022-08-21T14:15:01;99840.72;;;25.24;21.70
66385;BME280;53426;55.872;37.462;2022-08-21T14:17:37;99891.38;;;25.68;21.85
66385;BME280;53426;55.872;37.462;2022-08-21T14:20:12;99902.59;;;25.78;21.77
66385;BME280;53426;55.872;37.462;2022-08-21T14:22:42;99899.03;;;25.78;21.80
66385;BME280;53426;55.872;37.462;2022-08-21T14:27:55;99909.19;;;25.89;21.95
66385;BME280;53426;55.872;37.462;2022-08-21T14:32:54;99907.19;;;25.78;22.11
66385;BME280;53426;55.872;37.462;2022-08-21T14:35:21;99903.50;;;25.66;22.17
66385;BME280;53426;55.872;37.462;2022-08-21T14:37:48;99892.06;;;25.51;22.27